Terminal Aerodrome Forecast
Issued by NWS

Home | Current Version | Previous Version | Text Only | Print | Product List | Glossary On
Versions: 1 2 3 4 5 6 7 8 9 10 11 12 13 14 15 16 17 18 19 20 21 22 23 24 25 26 27 28
495
FTUS46 KMTR 092100 AAA
TAFSFO
TAF AMD
KSFO 092100Z 0921/1024 12004KT P6SM FEW250
     FM092200 29004KT P6SM SCT250
     FM100000 30008KT P6SM SCT250
     FM100500 VRB03KT P6SM FEW250
     FM102100 32006KT P6SM SKC=

USA.gov is the U.S. government's official web portal to all federal, state and local government web resources and services.